Nearby METAR Reports

 

LIBG - Grottaglie(Civ/A, Italy
Distance from station: PnWs 13km
Aktualizacja: 06/10/2022 19:50
Bezchmurnie
Bezchmurnie
 Wiatr z varies
Wiatr: varies 4 km/h
Temperatura: 19°C
Punkt Rosy: 9°C
Wilgotność: 52%
Ciśnienie: 1025 hPa
Podsumowanie: Bezchmurnie
Visibility: greater than 10 km
2022/10/06 17:50 LIBG 061750Z VRB02KT CAVOK 19/09 Q1025
LIBH - Marina Di Ginosa, Italy
Distance from station: Zd 33km
Aktualizacja: 06/10/2022 19:55
Bezchmurnie
Bezchmurnie
 Wiatr z PnZd
Wiatr: PnZd 9 km/h
Temperatura: 19°C
Punkt Rosy: 9°C
Wilgotność: 52%
Ciśnienie: 1024 hPa
Podsumowanie: Bezchmurnie
Visibility: greater than 10 km
2022/10/06 17:55 LIBH 061755Z 31005KT CAVOK 19/09 Q1024 RMK BKN BKN200 QUK / QUL / VIS MAR 30 KM VIS MIN 9999
 
LIBV - Gioia Del Colle, Italy
Distance from station: PnZd 45km
Aktualizacja: 06/10/2022 19:55
Bezchmurnie
Bezchmurnie
 Wiatr z Pn
Wiatr: Pn 11 km/h
Temperatura: 16°C
Punkt Rosy: 10°C
Wilgotność: 68%
Ciśnienie: 1025 hPa
Podsumowanie: Bezchmurnie
Visibility: greater than 10 km
2022/10/06 17:55 LIBV 061755Z 35006KT CAVOK 16/10 Q1025
LIBR - Brindisi/Casale, Italy
Distance from station: WsPnWs 62km
Aktualizacja: 06/10/2022 19:50
Częściowe zachmurzenie
Częściowe zachmurzenie
 Wiatr z Pn
Wiatr: Pn 19 km/h
Temperatura: 19°C
Punkt Rosy: 15°C
Wilgotność: 78%
Ciśnienie: 1025 hPa
Clouds: Częściowe zachmurzenie
Visibility: 10 km
Cloud details: Częściowe zachmurzenie 610 m
2022/10/06 17:50 LIBR 061750Z 35010KT 9999 SCT020 19/15 Q1025
 
LIBN - Lecce (it-Afb), Italy
Distance from station: WsPdWs 79km
Aktualizacja: 06/10/2022 19:55
Bezchmurnie
Bezchmurnie
 Wiatr z PnPnZd
Wiatr: PnPnZd 11 km/h
Temperatura: 17°C
Punkt Rosy: 16°C
Wilgotność: 94%
Ciśnienie: 1025 hPa
Podsumowanie: Bezchmurnie
Visibility: greater than 10 km
2022/10/06 17:55 LIBN 061755Z 33006KT CAVOK 17/16 Q1025
LIBD - Bari/Palese Macc, Italy
Distance from station: PnPnZd 85km
Aktualizacja: 06/10/2022 19:50
Bezchmurnie
Bezchmurnie
 Wiatr z ZdPnZd
Wiatr: ZdPnZd 7 km/h
Temperatura: 17°C
Punkt Rosy: 11°C
Wilgotność: 68%
Ciśnienie: 1026 hPa
Podsumowanie: Bezchmurnie
Visibility: greater than 10 km
2022/10/06 17:50 LIBD 061750Z 29004KT CAVOK 17/11 Q1026